createdAt,value
2022-10-01T00:04:32.963Z,960.65
2022-10-01T00:09:35.068Z,960.62
2022-10-01T00:14:36.339Z,960.57
2022-10-01T00:19:37.946Z,960.66
2022-10-01T00:24:39.273Z,960.69
2022-10-01T00:29:41.164Z,960.67
2022-10-01T00:34:43.115Z,960.67
2022-10-01T00:39:44.701Z,960.72
2022-10-01T00:44:46.781Z,960.71
2022-10-01T00:49:58.715Z,960.67
2022-10-01T00:54:56.541Z,960.65
2022-10-01T00:59:58.146Z,960.69
2022-10-01T01:04:59.404Z,960.54
2022-10-01T01:10:01.285Z,960.5
2022-10-01T01:15:02.625Z,960.45
2022-10-01T01:20:03.788Z,960.33
2022-10-01T01:25:05.460Z,960.25
2022-10-01T01:30:06.931Z,960.34
2022-10-01T01:35:08.298Z,960.47
2022-10-01T01:40:09.459Z,960.45
2022-10-01T01:45:10.766Z,960.41
2022-10-01T01:50:12.619Z,960.45
2022-10-01T01:55:14.537Z,960.42
2022-10-01T02:00:16.693Z,960.37
2022-10-01T02:05:18.218Z,960.4
2022-10-01T02:10:19.996Z,960.35
2022-10-01T02:15:21.699Z,960.35
2022-10-01T02:20:23.632Z,960.36
2022-10-01T02:25:25.794Z,960.41
2022-10-01T02:30:27.956Z,960.35
2022-10-01T02:35:29.210Z,960.34
2022-10-01T02:40:30.613Z,960.26
2022-10-01T02:45:32.009Z,960.25
2022-10-01T02:50:33.216Z,960.17
2022-10-01T02:55:35.409Z,960.1
2022-10-01T03:00:36.731Z,960.06
2022-10-01T03:05:38.100Z,960.04
2022-10-01T03:10:42.397Z,960.07
2022-10-01T03:15:41.064Z,960.12
2022-10-01T03:20:42.328Z,960.16
2022-10-01T03:25:43.539Z,960.15
2022-10-01T03:30:45.255Z,960.07
2022-10-01T03:35:47.064Z,959.98
2022-10-01T03:40:48.356Z,959.91
2022-10-01T03:45:50.026Z,959.86
2022-10-01T03:50:52.090Z,959.87
2022-10-01T03:55:53.850Z,959.85
2022-10-01T04:00:55.745Z,959.84
2022-10-01T04:05:57.610Z,959.86
2022-10-01T04:10:59.437Z,959.9
2022-10-01T04:16:01.541Z,959.9
2022-10-01T04:21:03.367Z,959.98
2022-10-01T04:26:05.196Z,959.94
2022-10-01T04:31:07.048Z,959.93
2022-10-01T04:36:08.405Z,959.99
2022-10-01T04:41:10.011Z,960.01
2022-10-01T04:46:11.704Z,960.03
2022-10-01T04:51:13.860Z,960.02
2022-10-01T04:56:15.104Z,959.95
2022-10-01T05:01:16.834Z,959.95
2022-10-01T05:06:18.481Z,959.95
2022-10-01T05:11:19.679Z,959.91
2022-10-01T05:16:21.508Z,959.92
2022-10-01T05:21:22.891Z,959.93
2022-10-01T05:26:24.607Z,959.98
2022-10-01T05:31:25.997Z,960.05
2022-10-01T05:36:27.262Z,959.99
2022-10-01T05:41:28.806Z,960.01
2022-10-01T05:46:30.423Z,960.07
2022-10-01T05:51:31.949Z,960.09
2022-10-01T05:56:33.547Z,960.11
2022-10-01T06:01:35.489Z,960.11
2022-10-01T06:06:36.490Z,960.19
2022-10-01T06:11:38.069Z,960.29
2022-10-01T06:16:40.218Z,960.33
2022-10-01T06:21:41.311Z,960.33
2022-10-01T06:26:43.289Z,960.31
2022-10-01T06:31:44.630Z,960.22
2022-10-01T06:36:45.948Z,960.23
2022-10-01T06:41:48.064Z,960.23
2022-10-01T06:46:50.038Z,960.22
2022-10-01T06:51:51.941Z,960.3
2022-10-01T06:56:53.810Z,960.26
2022-10-01T07:01:56.557Z,960.16
2022-10-01T07:06:57.960Z,960.16
2022-10-01T07:11:59.202Z,960.05
2022-10-01T07:17:01.161Z,959.95
2022-10-01T07:22:03.209Z,959.96
2022-10-01T07:27:07.334Z,959.93
2022-10-01T07:32:06.040Z,959.86
2022-10-01T07:37:07.491Z,959.78
2022-10-01T07:47:11.582Z,959.87
2022-10-01T08:02:16.809Z,959.73
2022-10-01T08:17:25.009Z,959.67
2022-10-01T08:27:25.777Z,959.58
2022-10-01T08:32:27.028Z,959.6
2022-10-01T08:37:28.833Z,959.52
2022-10-01T08:42:30.818Z,959.44
2022-10-01T08:47:32.700Z,959.41
2022-10-01T08:52:33.862Z,959.44
2022-10-01T08:57:35.940Z,959.38
2022-10-01T09:02:37.902Z,959.31
2022-10-01T09:07:39.017Z,959.27
2022-10-01T09:12:40.990Z,959.29
2022-10-01T09:17:42.263Z,959.17
2022-10-01T09:22:43.585Z,959.27
2022-10-01T09:27:45.397Z,959.23
2022-10-01T09:32:46.820Z,959.27
2022-10-01T09:37:48.669Z,959.34
2022-10-01T09:42:50.454Z,959.37
2022-10-01T09:47:52.161Z,959.4
2022-10-01T09:52:54.254Z,959.44
2022-10-01T09:57:55.697Z,959.47
2022-10-01T10:02:57.903Z,959.47
2022-10-01T10:07:58.932Z,959.5
2022-10-01T10:13:00.784Z,959.49
2022-10-01T10:18:02.824Z,959.52
2022-10-01T10:23:03.964Z,959.54
2022-10-01T10:28:05.332Z,959.57
2022-10-01T10:33:07.322Z,959.64
2022-10-01T10:38:09.135Z,959.71
2022-10-01T10:43:10.795Z,959.72
2022-10-01T10:48:12.850Z,959.78
2022-10-01T10:53:14.031Z,959.72
2022-10-01T10:58:16.117Z,959.73
2022-10-01T11:03:18.115Z,959.72
2022-10-01T11:08:19.668Z,959.66
2022-10-01T11:13:20.976Z,959.64
2022-10-01T11:18:22.805Z,959.65
2022-10-01T11:23:24.477Z,959.61
2022-10-01T11:28:25.896Z,959.72
2022-10-01T11:33:27.394Z,959.67
2022-10-01T11:38:28.647Z,959.64
2022-10-01T11:43:29.950Z,959.66
2022-10-01T11:48:31.918Z,959.79
2022-10-01T11:53:33.774Z,959.86
2022-10-01T11:58:35.695Z,959.9
2022-10-01T12:03:37.394Z,959.89
2022-10-01T12:08:39.203Z,959.83
2022-10-01T12:13:40.806Z,959.76
2022-10-01T12:18:42.721Z,959.82
2022-10-01T12:23:43.953Z,959.82
2022-10-01T12:28:49.192Z,959.88
2022-10-01T12:33:47.363Z,959.87
2022-10-01T12:38:49.479Z,959.82
2022-10-01T12:43:51.100Z,959.67
2022-10-01T12:48:52.850Z,959.63
2022-10-01T12:53:54.577Z,959.5
2022-10-01T12:58:56.205Z,959.48
2022-10-01T13:04:01.114Z,959.46
2022-10-01T13:08:59.809Z,959.39
2022-10-01T13:14:01.509Z,959.44
2022-10-01T13:19:03.508Z,959.42
2022-10-01T13:24:05.194Z,959.45
2022-10-01T13:29:06.498Z,959.46
2022-10-01T13:34:07.932Z,959.47
2022-10-01T13:39:09.225Z,959.38
2022-10-01T13:44:10.420Z,959.39
2022-10-01T13:49:11.970Z,959.44
2022-10-01T13:54:16.880Z,959.63
2022-10-01T13:59:16.069Z,959.71
2022-10-01T14:04:18.008Z,959.79
2022-10-01T14:09:20.038Z,959.8
2022-10-01T14:14:21.382Z,959.78
2022-10-01T14:19:22.976Z,959.76
2022-10-01T14:24:24.814Z,959.68
2022-10-01T14:29:26.130Z,959.71
2022-10-01T14:34:27.775Z,959.71
2022-10-01T14:39:29.656Z,959.71
2022-10-01T14:44:31.702Z,959.71
2022-10-01T14:49:33.373Z,959.67
2022-10-01T14:54:34.640Z,959.71
2022-10-01T14:59:36.094Z,959.65
2022-10-01T15:04:37.554Z,959.73
2022-10-01T15:09:39.433Z,959.72
2022-10-01T15:14:40.867Z,959.67
2022-10-01T15:19:42.575Z,959.66
2022-10-01T15:24:44.696Z,959.71
2022-10-01T15:29:46.625Z,959.7
2022-10-01T15:34:48.264Z,959.63
2022-10-01T15:39:49.733Z,959.52
2022-10-01T15:44:51.327Z,959.46
2022-10-01T15:49:53.304Z,959.53
2022-10-01T15:54:54.940Z,959.61
2022-10-01T15:59:56.795Z,959.62
2022-10-01T16:04:58.528Z,959.6
2022-10-01T16:10:00.156Z,959.72
2022-10-01T16:15:01.317Z,959.75
2022-10-01T16:20:02.652Z,959.73
2022-10-01T16:25:03.991Z,959.77
2022-10-01T16:30:06.015Z,959.89
2022-10-01T16:35:06.968Z,959.9
2022-10-01T16:40:10.743Z,960.05
2022-10-01T16:45:10.259Z,960.04
2022-10-01T16:50:12.003Z,960.1
2022-10-01T16:55:13.767Z,960.23
2022-10-01T17:00:15.137Z,960.39
2022-10-01T17:05:17.188Z,960.44
2022-10-01T17:10:19.056Z,960.47
2022-10-01T17:15:20.922Z,960.48
2022-10-01T17:20:22.281Z,960.49
2022-10-01T17:25:24.366Z,960.6
2022-10-01T17:30:25.572Z,960.61
2022-10-01T17:30:40.908Z,960.6
2022-10-01T17:35:43.092Z,960.68
2022-10-01T17:40:45.013Z,960.79
2022-10-01T17:45:46.273Z,960.89
2022-10-01T17:50:48.210Z,961.01
2022-10-01T17:55:49.852Z,961.09
2022-10-01T18:00:51.815Z,961.23
2022-10-01T18:05:53.735Z,961.24
2022-10-01T18:10:55.434Z,961.39
2022-10-01T18:15:56.738Z,961.45
2022-10-01T18:20:58.082Z,961.51
2022-10-01T18:26:00.085Z,961.57
2022-10-01T18:31:01.526Z,961.5
2022-10-01T18:36:03.481Z,961.55
2022-10-01T18:41:05.065Z,961.54
2022-10-01T18:46:06.752Z,961.62
2022-10-01T18:51:08.022Z,961.68
2022-10-01T18:56:09.780Z,961.68
2022-10-01T19:01:11.956Z,961.81
2022-10-01T19:06:13.616Z,961.84
2022-10-01T19:11:17.910Z,961.84
2022-10-01T19:16:17.504Z,961.84
2022-10-01T19:21:19.346Z,961.9
2022-10-01T19:26:20.721Z,961.92
2022-10-01T19:31:22.542Z,961.98
2022-10-01T19:36:24.437Z,962.09
2022-10-01T19:41:26.140Z,962.17
2022-10-01T19:46:27.659Z,962.21
2022-10-01T19:51:29.190Z,962.26
2022-10-01T19:56:31.032Z,962.36
2022-10-01T20:01:32.892Z,962.49
2022-10-01T20:06:35.009Z,962.58
2022-10-01T20:11:36.194Z,962.62
2022-10-01T20:16:38.254Z,962.68
2022-10-01T20:21:39.014Z,962.8
2022-10-01T20:26:40.384Z,962.85
2022-10-01T20:31:42.179Z,962.82
2022-10-01T20:36:43.918Z,962.88
2022-10-01T20:41:45.608Z,962.89
2022-10-01T20:46:47.008Z,962.99
2022-10-01T20:51:48.783Z,963.14
2022-10-01T20:56:50.873Z,963.32
2022-10-01T21:01:53.028Z,963.39
2022-10-01T21:06:54.602Z,963.37
2022-10-01T21:11:56.533Z,963.48
2022-10-01T21:16:58.067Z,963.4
2022-10-01T21:22:00.119Z,963.52
2022-10-01T21:27:01.732Z,963.66
2022-10-01T21:32:03.908Z,963.6
2022-10-01T21:37:05.655Z,963.79
2022-10-01T21:52:10.539Z,964.06
2022-10-01T22:12:17.897Z,964.34
2022-10-01T22:17:20.048Z,964.51
2022-10-01T22:22:22.000Z,964.57
2022-10-01T22:42:29.281Z,964.79
2022-10-01T22:47:30.596Z,964.9
2022-10-01T22:52:32.443Z,965.03
2022-10-01T22:57:34.330Z,965.02
2022-10-01T23:02:35.921Z,965.02
2022-10-01T23:07:37.685Z,965.05
2022-10-01T23:12:38.978Z,965.17
2022-10-01T23:17:40.677Z,965.19
2022-10-01T23:22:42.458Z,965.26
2022-10-01T23:27:44.780Z,965.27
2022-10-01T23:32:46.247Z,965.33
2022-10-01T23:37:47.808Z,965.38
2022-10-01T23:42:49.657Z,965.37
2022-10-01T23:47:51.062Z,965.42
2022-10-01T23:52:52.474Z,965.5
2022-10-01T23:57:53.951Z,965.62
